2WI0 weather

Bender's Airport
Rothschild, Wisconsin, United States

Public forecast

Using degrees Fahrenheit for public forecast. Weather courtesy of forecast.io.

METAR (pilot weather report)

Closest report is Wausau Downtown Airport, 4.6 nm (8.4 km) NNW. Retrieved 2019/08/25 00:54 UTC (34 minutes ago):

KAUW 250054Z AUTO 10005KT 10SM FEW050 18/12 A3021 RMK AO2 SLP235 T01780117

TAF (pilot weather forecast)

Forecast is more than 12 hours old.

Closest forecast is Wausau Downtown Airport, 4.6 nm (8.4 km) NNW. Retrieved 2019/08/24 00:24 UTC (1 day ago):

TAF KAUW 242321Z 2500/2524 14007KT P6SM SCT050 FM250100 12003KT P6SM SCT200 FM251500 14009KT P6SM SCT030 SCT150 FM251800 14010KT P6SM BKN035